createdAt,value
2018-03-01T00:02:20.789Z,93.40
2018-03-01T00:04:50.645Z,93.30
2018-03-01T00:07:21.248Z,93.70
2018-03-01T00:09:52.609Z,93.90
2018-03-01T00:12:22.442Z,93.80
2018-03-01T00:14:53.066Z,95.60
2018-03-01T00:17:23.688Z,96.70
2018-03-01T00:19:53.754Z,96.70
2018-03-01T00:22:34.931Z,97.10
2018-03-01T00:25:04.081Z,97.20
2018-03-01T00:27:34.349Z,98.50
2018-03-01T00:30:03.877Z,98.00
2018-03-01T00:32:33.719Z,99.20
2018-03-01T00:35:03.550Z,99.90
2018-03-01T00:37:34.199Z,99.90
2018-03-01T00:40:04.125Z,99.90
2018-03-01T00:42:33.978Z,99.90
2018-03-01T00:45:03.781Z,99.90
2018-03-01T00:47:33.615Z,99.90
2018-03-01T00:50:03.418Z,99.90
2018-03-01T00:52:33.255Z,99.90
2018-03-01T00:55:03.323Z,99.90
2018-03-01T00:57:33.166Z,99.90
2018-03-01T01:00:03.830Z,99.90
2018-03-01T01:02:33.407Z,99.90
2018-03-01T01:05:03.268Z,99.90
2018-03-01T01:07:33.114Z,99.90
2018-03-01T01:10:03.142Z,99.90
2018-03-01T01:12:33.678Z,99.90
2018-03-01T01:15:03.538Z,99.90
2018-03-01T01:17:33.779Z,99.90
2018-03-01T01:20:03.296Z,99.90
2018-03-01T01:22:33.113Z,99.90
2018-03-01T01:25:02.949Z,99.90
2018-03-01T01:27:32.810Z,99.90
2018-03-01T01:30:02.627Z,99.90
2018-03-01T01:32:32.466Z,99.90
2018-03-01T01:35:02.279Z,99.90
2018-03-01T01:37:32.148Z,99.90
2018-03-01T01:40:01.931Z,99.90
2018-03-01T01:42:31.782Z,99.90
2018-03-01T01:45:01.638Z,99.90
2018-03-01T01:47:31.511Z,99.90
2018-03-01T01:50:02.118Z,99.90
2018-03-01T01:52:31.930Z,99.90
2018-03-01T01:55:01.781Z,99.90
2018-03-01T01:57:31.588Z,99.90
2018-03-01T02:00:01.422Z,99.90
2018-03-01T02:02:31.011Z,99.90
2018-03-01T02:05:00.861Z,99.90
2018-03-01T02:07:30.709Z,99.90
2018-03-01T02:10:01.286Z,99.90
2018-03-01T02:12:30.875Z,99.90
2018-03-01T02:15:00.798Z,99.90
2018-03-01T02:17:30.350Z,99.90
2018-03-01T02:20:00.585Z,99.90
2018-03-01T02:22:31.904Z,99.90
2018-03-01T02:25:01.683Z,99.90
2018-03-01T02:27:32.228Z,99.90
2018-03-01T02:30:02.037Z,99.90
2018-03-01T02:32:31.581Z,99.90
2018-03-01T02:35:01.044Z,99.90
2018-03-01T02:37:30.967Z,99.90
2018-03-01T02:40:01.728Z,99.90
2018-03-01T02:42:31.618Z,99.90
2018-03-01T02:45:01.541Z,99.90
2018-03-01T02:47:31.370Z,99.90
2018-03-01T02:50:00.810Z,99.90
2018-03-01T02:52:31.385Z,99.90
2018-03-01T02:55:01.172Z,99.90
2018-03-01T02:57:31.735Z,99.90
2018-03-01T03:00:01.515Z,99.90
2018-03-01T03:02:31.057Z,99.90
2018-03-01T03:05:00.505Z,99.90
2018-03-01T03:07:31.090Z,99.90
2018-03-01T03:10:00.584Z,99.90
2018-03-01T03:12:30.425Z,99.90
2018-03-01T03:15:00.201Z,99.90
2018-03-01T03:17:30.010Z,99.90
2018-03-01T03:19:59.842Z,99.90
2018-03-01T03:22:29.608Z,99.90
2018-03-01T03:25:00.201Z,99.90
2018-03-01T03:27:29.977Z,99.90
2018-03-01T03:29:59.789Z,99.90
2018-03-01T03:32:29.600Z,99.90
2018-03-01T03:34:59.673Z,99.90
2018-03-01T03:37:29.481Z,99.90
2018-03-01T03:40:00.111Z,99.90
2018-03-01T03:42:29.919Z,99.90
2018-03-01T03:44:59.715Z,99.90
2018-03-01T03:47:30.013Z,99.90
2018-03-01T03:49:59.837Z,99.90
2018-03-01T03:52:29.818Z,99.90
2018-03-01T03:55:00.388Z,99.90
2018-03-01T03:57:30.174Z,99.90
2018-03-01T04:00:00.747Z,99.90
2018-03-01T04:02:30.551Z,99.90
2018-03-01T04:05:00.425Z,99.90
2018-03-01T04:07:31.021Z,99.90
2018-03-01T04:10:00.907Z,99.90
2018-03-01T04:12:30.748Z,99.90
2018-03-01T04:15:00.545Z,99.90
2018-03-01T04:17:30.384Z,99.90
2018-03-01T04:20:00.225Z,99.90
2018-03-01T04:22:30.817Z,99.90
2018-03-01T04:25:00.463Z,99.90
2018-03-01T04:27:31.027Z,99.90
2018-03-01T04:30:00.834Z,99.90
2018-03-01T04:32:30.641Z,99.90
2018-03-01T04:35:00.470Z,99.90
2018-03-01T04:37:30.246Z,99.90
2018-03-01T04:40:00.839Z,99.90
2018-03-01T04:42:30.610Z,99.90
2018-03-01T04:45:00.432Z,99.90
2018-03-01T04:47:30.211Z,99.90
2018-03-01T04:50:00.118Z,99.90
2018-03-01T04:52:30.693Z,99.90
2018-03-01T04:55:00.495Z,99.90
2018-03-01T04:57:30.325Z,99.90
2018-03-01T05:00:00.089Z,99.90
2018-03-01T05:02:30.677Z,99.90
2018-03-01T05:05:00.527Z,99.90
2018-03-01T05:07:30.392Z,99.90
2018-03-01T05:10:00.156Z,99.90
2018-03-01T05:12:30.727Z,99.90
2018-03-01T05:15:00.555Z,99.90
2018-03-01T05:17:30.331Z,99.90
2018-03-01T05:19:59.994Z,99.90
2018-03-01T05:22:29.772Z,99.90
2018-03-01T05:24:59.599Z,99.90
2018-03-01T05:27:29.365Z,99.90
2018-03-01T05:30:00.428Z,99.90
2018-03-01T05:32:30.395Z,99.90
2018-03-01T05:35:00.236Z,99.90
2018-03-01T05:37:30.810Z,99.90
2018-03-01T05:40:00.644Z,99.90
2018-03-01T05:42:30.491Z,99.90
2018-03-01T05:45:01.159Z,99.90
2018-03-01T05:47:31.132Z,99.90
2018-03-01T05:50:01.714Z,99.90
2018-03-01T05:52:31.928Z,99.90
2018-03-01T05:55:01.801Z,99.90
2018-03-01T05:57:31.801Z,99.90
2018-03-01T06:00:02.326Z,99.90
2018-03-01T06:02:32.205Z,99.90
2018-03-01T06:05:02.956Z,99.90
2018-03-01T06:07:33.606Z,99.90
2018-03-01T06:10:03.381Z,99.90
2018-03-01T06:12:33.206Z,99.90
2018-03-01T06:15:02.985Z,99.90
2018-03-01T06:17:32.806Z,99.90
2018-03-01T06:20:02.750Z,99.90
2018-03-01T06:22:32.903Z,99.90
2018-03-01T06:25:06.138Z,99.90
2018-03-01T06:27:36.397Z,99.90
2018-03-01T06:30:06.231Z,99.90
2018-03-01T06:32:36.049Z,99.90
2018-03-01T06:35:06.749Z,99.90
2018-03-01T06:37:36.580Z,99.90
2018-03-01T06:40:06.380Z,99.90
2018-03-01T06:42:36.244Z,99.90
2018-03-01T06:45:06.210Z,99.90
2018-03-01T06:47:36.035Z,99.90
2018-03-01T06:50:06.174Z,99.90
2018-03-01T06:52:37.612Z,99.90
2018-03-01T06:55:07.425Z,99.90
2018-03-01T06:57:37.270Z,99.90
2018-03-01T07:00:07.813Z,99.90
2018-03-01T07:02:37.641Z,99.90
2018-03-01T07:05:07.457Z,99.90
2018-03-01T07:07:37.313Z,99.90
2018-03-01T07:10:07.101Z,99.90
2018-03-01T07:12:36.931Z,99.90
2018-03-01T07:15:06.773Z,99.90
2018-03-01T07:17:38.363Z,99.90
2018-03-01T07:20:08.981Z,99.90
2018-03-01T07:22:38.538Z,99.90
2018-03-01T07:25:08.347Z,99.90
2018-03-01T07:27:38.277Z,99.90
2018-03-01T07:30:08.871Z,99.90
2018-03-01T07:32:38.710Z,99.90
2018-03-01T07:35:08.524Z,99.90
2018-03-01T07:37:37.978Z,99.90
2018-03-01T07:40:07.792Z,99.90
2018-03-01T07:42:37.575Z,99.90
2018-03-01T07:45:08.153Z,99.90
2018-03-01T07:47:37.960Z,99.90
2018-03-01T07:50:07.778Z,99.90
2018-03-01T07:52:37.640Z,98.60
2018-03-01T07:55:08.179Z,98.30
2018-03-01T07:57:38.776Z,95.80
2018-03-01T08:00:09.138Z,95.80
2018-03-01T08:02:39.735Z,94.20
2018-03-01T08:05:09.593Z,94.20
2018-03-01T08:07:39.384Z,93.10
2018-03-01T08:10:09.187Z,90.20
2018-03-01T08:12:39.433Z,86.50
2018-03-01T08:15:09.258Z,84.10
2018-03-01T08:17:39.056Z,82.50
2018-03-01T08:20:10.561Z,76.80
2018-03-01T08:22:40.409Z,76.80
2018-03-01T08:25:10.195Z,72.60
2018-03-01T08:27:40.024Z,72.80
2018-03-01T08:30:10.018Z,71.90
2018-03-01T08:32:39.905Z,70.20
2018-03-01T08:35:09.737Z,69.30
2018-03-01T08:37:39.525Z,68.20
2018-03-01T08:40:09.451Z,66.60
2018-03-01T08:42:39.239Z,64.70
2018-03-01T08:45:09.062Z,67.80
2018-03-01T08:47:38.866Z,61.50
2018-03-01T08:50:09.447Z,57.50
2018-03-01T08:52:39.255Z,57.50
2018-03-01T08:55:09.066Z,57.00
2018-03-01T08:57:39.390Z,56.70
2018-03-01T09:00:08.832Z,56.60
2018-03-01T09:02:38.665Z,56.20
2018-03-01T09:05:08.451Z,55.80
2018-03-01T09:07:38.341Z,54.70
2018-03-01T09:10:08.119Z,54.40
2018-03-01T09:12:37.960Z,52.30
2018-03-01T09:15:07.720Z,51.20
2018-03-01T09:17:38.305Z,51.80
2018-03-01T09:20:08.087Z,51.80
2018-03-01T09:22:37.941Z,51.40
2018-03-01T09:25:07.779Z,49.80
2018-03-01T09:27:37.599Z,50.30
2018-03-01T09:30:08.143Z,49.90
2018-03-01T09:32:37.949Z,49.80
2018-03-01T09:35:08.193Z,49.20
2018-03-01T09:37:37.984Z,49.20
2018-03-01T09:40:08.577Z,48.70
2018-03-01T09:42:38.354Z,48.60
2018-03-01T09:45:08.179Z,48.00
2018-03-01T09:47:37.997Z,47.70
2018-03-01T09:50:07.787Z,47.50
2018-03-01T09:52:37.590Z,48.70
2018-03-01T09:55:07.370Z,47.20
2018-03-01T09:57:37.183Z,47.20
2018-03-01T10:00:07.015Z,46.30
2018-03-01T10:02:36.819Z,45.40
2018-03-01T10:05:07.462Z,44.20
2018-03-01T10:07:37.428Z,44.20
2018-03-01T10:10:07.245Z,45.30
2018-03-01T10:12:37.014Z,45.00
2018-03-01T10:15:06.834Z,46.10
2018-03-01T10:17:36.654Z,46.80
2018-03-01T10:20:06.444Z,46.40
2018-03-01T10:22:36.272Z,46.00
2018-03-01T10:25:06.057Z,45.10
2018-03-01T10:27:35.885Z,45.70
2018-03-01T10:30:05.438Z,45.70
2018-03-01T10:32:35.269Z,46.50
2018-03-01T10:35:05.174Z,46.00
2018-03-01T10:37:34.967Z,45.40
2018-03-01T10:40:04.797Z,45.60
2018-03-01T10:42:34.588Z,44.50
2018-03-01T10:45:04.074Z,44.90
2018-03-01T10:47:33.853Z,45.00
2018-03-01T10:50:03.800Z,43.60
2018-03-01T10:52:34.478Z,43.00
2018-03-01T10:55:04.264Z,42.70
2018-03-01T10:57:34.318Z,41.90
2018-03-01T11:00:03.805Z,41.50
2018-03-01T11:02:33.538Z,41.30
2018-03-01T11:05:03.062Z,41.80
2018-03-01T11:07:34.383Z,41.00
2018-03-01T11:10:04.013Z,41.00
2018-03-01T11:12:34.374Z,39.70
2018-03-01T11:15:03.863Z,39.70
2018-03-01T11:17:33.640Z,40.50
2018-03-01T11:20:03.192Z,40.50
2018-03-01T11:22:32.847Z,40.10
2018-03-01T11:25:02.429Z,39.40
2018-03-01T11:27:32.539Z,38.20
2018-03-01T11:30:02.556Z,37.50
2018-03-01T11:32:32.490Z,37.10
2018-03-01T11:35:02.506Z,36.50
2018-03-01T11:37:33.201Z,34.80
2018-03-01T11:40:02.993Z,34.70
2018-03-01T11:42:32.490Z,34.50
2018-03-01T11:45:02.302Z,33.60
2018-03-01T11:47:32.088Z,33.90
2018-03-01T11:50:01.882Z,33.70
2018-03-01T11:52:31.704Z,31.90
2018-03-01T11:55:01.521Z,31.60
2018-03-01T11:57:31.292Z,31.20
2018-03-01T12:00:01.905Z,31.10
2018-03-01T12:02:31.730Z,31.00
2018-03-01T12:05:02.331Z,30.30
2018-03-01T12:07:32.102Z,30.10
2018-03-01T12:10:01.909Z,30.30
2018-03-01T12:12:31.713Z,30.70
2018-03-01T12:15:01.481Z,31.30
2018-03-01T12:17:31.293Z,31.20
2018-03-01T12:20:02.086Z,29.80
2018-03-01T12:22:31.625Z,29.80
2018-03-01T12:25:01.435Z,29.80
2018-03-01T12:27:31.240Z,29.40
2018-03-01T12:30:01.092Z,29.30
2018-03-01T12:32:31.669Z,28.20
2018-03-01T12:35:01.493Z,28.20
2018-03-01T12:37:31.261Z,26.90
2018-03-01T12:40:01.832Z,27.80
2018-03-01T12:42:31.640Z,27.80
2018-03-01T12:45:01.468Z,28.30
2018-03-01T12:47:31.261Z,27.70
2018-03-01T12:50:00.893Z,27.80
2018-03-01T12:52:30.522Z,26.80
2018-03-01T12:55:00.906Z,27.80
2018-03-01T12:57:30.542Z,27.80
2018-03-01T13:00:00.172Z,27.60
2018-03-01T13:02:29.779Z,27.90
2018-03-01T13:05:01.253Z,27.00
2018-03-01T13:07:31.679Z,26.50
2018-03-01T13:10:02.058Z,26.60
2018-03-01T13:12:31.657Z,26.60
2018-03-01T13:15:01.310Z,27.20
2018-03-01T13:17:31.907Z,27.80
2018-03-01T13:20:01.713Z,27.80
2018-03-01T13:22:31.331Z,28.10
2018-03-01T13:25:00.984Z,27.70
2018-03-01T13:27:30.333Z,26.90
2018-03-01T13:29:59.955Z,26.30
2018-03-01T13:32:31.273Z,26.50
2018-03-01T13:35:04.846Z,26.10
2018-03-01T13:37:34.659Z,26.20
2018-03-01T13:40:04.089Z,26.30
2018-03-01T13:42:38.706Z,27.10
2018-03-01T13:45:08.318Z,27.60
2018-03-01T13:47:38.567Z,27.20
2018-03-01T13:50:08.197Z,27.00
2018-03-01T13:52:37.796Z,26.80
2018-03-01T13:55:08.204Z,26.70
2018-03-01T13:57:38.058Z,26.70
2018-03-01T14:00:08.427Z,27.10
2018-03-01T14:02:38.052Z,27.10
2018-03-01T14:05:07.681Z,26.80
2018-03-01T14:07:47.999Z,26.80
2018-03-01T14:10:17.653Z,27.20
2018-03-01T14:12:49.331Z,27.50
2018-03-01T14:15:19.714Z,27.50
2018-03-01T14:21:04.158Z,27.40
2018-03-01T14:23:48.394Z,27.10
2018-03-01T14:26:23.374Z,28.40
2018-03-01T14:28:54.927Z,28.40
2018-03-01T14:31:24.557Z,28.70
2018-03-01T14:33:54.583Z,29.00
2018-03-01T14:36:24.366Z,28.90
2018-03-01T14:38:54.182Z,29.10
2018-03-01T14:41:23.961Z,28.50
2018-03-01T14:43:53.785Z,29.00
2018-03-01T14:46:23.595Z,29.80
2018-03-01T14:48:53.448Z,30.70
2018-03-01T14:51:23.413Z,29.70
2018-03-01T14:53:53.231Z,29.40
2018-03-01T14:56:22.997Z,29.70
2018-03-01T14:58:52.812Z,29.30
2018-03-01T15:01:22.623Z,29.30
2018-03-01T15:03:52.425Z,29.90
2018-03-01T15:06:22.189Z,30.00
2018-03-01T15:08:52.010Z,32.20
2018-03-01T15:11:21.793Z,33.00
2018-03-01T15:13:52.364Z,32.20
2018-03-01T15:16:22.198Z,32.20
2018-03-01T15:18:51.968Z,32.30
2018-03-01T15:21:21.887Z,33.40
2018-03-01T15:23:51.666Z,33.00
2018-03-01T15:26:22.271Z,33.60
2018-03-01T15:28:52.172Z,33.60
2018-03-01T15:31:22.088Z,33.60
2018-03-01T15:33:51.922Z,34.80
2018-03-01T15:36:21.698Z,34.30
2018-03-01T15:38:51.502Z,35.40
2018-03-01T15:41:21.278Z,35.10
2018-03-01T15:43:51.077Z,35.30
2018-03-01T15:46:20.912Z,36.50
2018-03-01T15:48:51.046Z,36.40
2018-03-01T15:51:20.850Z,36.90
2018-03-01T15:53:51.445Z,37.80
2018-03-01T15:56:21.245Z,37.80
2018-03-01T15:58:50.866Z,39.80
2018-03-01T16:01:20.875Z,41.20
2018-03-01T16:03:50.664Z,42.50
2018-03-01T16:06:20.521Z,43.30
2018-03-01T16:08:51.093Z,44.10
2018-03-01T16:11:20.958Z,44.10
2018-03-01T16:13:50.769Z,44.70
2018-03-01T16:16:20.577Z,44.20
2018-03-01T16:18:50.389Z,44.20
2018-03-01T16:21:20.188Z,43.00
2018-03-01T16:23:50.031Z,43.30
2018-03-01T16:26:21.371Z,44.20
2018-03-01T16:28:51.378Z,44.20
2018-03-01T16:31:20.832Z,45.00
2018-03-01T16:33:51.440Z,45.80
2018-03-01T16:36:24.397Z,46.60
2018-03-01T16:38:55.017Z,47.30
2018-03-01T16:41:24.796Z,47.30
2018-03-01T16:43:54.602Z,47.70
2018-03-01T16:46:25.182Z,48.00
2018-03-01T16:48:54.985Z,47.90
2018-03-01T16:51:24.796Z,48.30
2018-03-01T16:53:54.627Z,48.60
2018-03-01T16:56:24.453Z,48.90
2018-03-01T16:58:54.234Z,49.80
2018-03-01T17:01:24.073Z,49.90
2018-03-01T17:03:53.866Z,50.00
2018-03-01T17:06:23.965Z,49.70
2018-03-01T17:08:53.744Z,49.70
2018-03-01T17:11:24.333Z,50.30
2018-03-01T17:13:54.107Z,50.30
2018-03-01T17:16:24.029Z,50.60
2018-03-01T17:18:53.844Z,50.80
2018-03-01T17:21:23.657Z,50.90
2018-03-01T17:23:53.469Z,51.00
2018-03-01T17:26:23.311Z,51.10
2018-03-01T17:28:53.380Z,51.50
2018-03-01T17:31:23.932Z,52.00
2018-03-01T17:33:53.397Z,52.00
2018-03-01T17:36:23.182Z,52.20
2018-03-01T17:38:53.021Z,52.20
2018-03-01T17:41:22.798Z,52.20
2018-03-01T17:43:52.637Z,52.20
2018-03-01T17:46:22.227Z,52.60
2018-03-01T17:48:52.063Z,52.90
2018-03-01T17:51:21.866Z,53.00
2018-03-01T17:53:51.711Z,53.20
2018-03-01T17:56:22.279Z,53.90
2018-03-01T17:58:51.893Z,53.90
2018-03-01T18:01:21.705Z,54.30
2018-03-01T18:03:51.655Z,54.40
2018-03-01T18:06:21.477Z,54.20
2018-03-01T18:08:52.030Z,54.80
2018-03-01T18:11:21.895Z,54.80
2018-03-01T18:13:52.174Z,55.20
2018-03-01T18:16:22.034Z,55.20
2018-03-01T18:18:52.094Z,55.70
2018-03-01T18:21:21.926Z,55.90
2018-03-01T18:23:51.749Z,56.10
2018-03-01T18:26:21.661Z,56.30
2018-03-01T18:28:51.564Z,56.50
2018-03-01T18:31:21.353Z,56.80
2018-03-01T18:33:51.165Z,57.30
2018-03-01T18:36:21.772Z,58.30
2018-03-01T18:38:51.567Z,57.80
2018-03-01T18:41:21.397Z,57.40
2018-03-01T18:43:51.268Z,57.40
2018-03-01T18:46:21.932Z,58.50
2018-03-01T18:48:51.722Z,58.50
2018-03-01T18:51:21.551Z,58.30
2018-03-01T18:53:51.379Z,58.90
2018-03-01T18:56:21.182Z,58.80
2018-03-01T18:58:51.079Z,59.30
2018-03-01T19:01:20.883Z,60.40
2018-03-01T19:03:50.727Z,62.30
2018-03-01T19:06:20.294Z,68.40
2018-03-01T19:08:50.103Z,62.10
2018-03-01T19:11:19.922Z,62.80
2018-03-01T19:13:49.714Z,62.40
2018-03-01T19:16:20.417Z,62.90
2018-03-01T19:18:50.193Z,62.90
2018-03-01T19:21:20.013Z,63.60
2018-03-01T19:23:49.822Z,63.70
2018-03-01T19:26:19.859Z,64.40
2018-03-01T19:28:49.355Z,64.20
2018-03-01T19:31:19.161Z,64.90
2018-03-01T19:33:48.954Z,65.00
2018-03-01T19:36:18.794Z,65.70
2018-03-01T19:38:48.569Z,66.80
2018-03-01T19:41:18.389Z,66.20
2018-03-01T19:43:48.206Z,67.20
2018-03-01T19:46:18.118Z,67.20
2018-03-01T19:48:47.887Z,68.70
2018-03-01T19:51:17.370Z,69.60
2018-03-01T19:53:47.157Z,70.90
2018-03-01T19:56:17.371Z,71.90
2018-03-01T19:58:47.162Z,71.70
2018-03-01T20:01:17.003Z,72.70
2018-03-01T20:03:46.789Z,73.20
2018-03-01T20:06:16.665Z,73.40
2018-03-01T20:08:46.962Z,75.10
2018-03-01T20:11:16.978Z,75.10
2018-03-01T20:13:46.745Z,74.30
2018-03-01T20:16:17.342Z,75.10
2018-03-01T20:18:47.153Z,75.00
2018-03-01T20:21:16.956Z,76.40
2018-03-01T20:23:46.757Z,78.00
2018-03-01T20:26:16.570Z,78.10
2018-03-01T20:28:46.364Z,78.30
2018-03-01T20:31:16.173Z,78.20
2018-03-01T20:33:46.028Z,79.80
2018-03-01T20:36:15.924Z,82.50
2018-03-01T20:38:45.716Z,82.80
2018-03-01T20:41:16.328Z,83.10
2018-03-01T20:43:45.920Z,83.00
2018-03-01T20:46:15.742Z,82.60
2018-03-01T20:48:45.600Z,83.70
2018-03-01T20:51:15.457Z,84.50
2018-03-01T20:53:45.235Z,86.70
2018-03-01T20:56:15.809Z,87.00
2018-03-01T20:58:45.630Z,87.00
2018-03-01T21:01:15.410Z,87.40
2018-03-01T21:03:45.231Z,93.50
2018-03-01T21:06:15.070Z,93.40
2018-03-01T21:08:44.729Z,92.40
2018-03-01T21:11:15.316Z,91.60
2018-03-01T21:13:45.091Z,91.60
2018-03-01T21:16:14.905Z,92.20
2018-03-01T21:18:44.722Z,93.20
2018-03-01T21:21:14.582Z,93.50
2018-03-01T21:23:44.373Z,94.40
2018-03-01T21:26:14.578Z,94.90
2018-03-01T21:28:44.108Z,95.10
2018-03-01T21:31:13.937Z,95.90
2018-03-01T21:33:44.279Z,97.60
2018-03-01T21:36:14.093Z,97.50
2018-03-01T21:38:43.731Z,98.20
2018-03-01T21:41:13.527Z,98.70
2018-03-01T21:43:44.146Z,99.80
2018-03-01T21:46:15.565Z,99.80
2018-03-01T21:48:45.368Z,99.90
2018-03-01T21:51:15.941Z,99.90
2018-03-01T21:53:46.374Z,99.90
2018-03-01T21:56:16.338Z,99.90
2018-03-01T21:58:46.272Z,99.90
2018-03-01T22:01:16.157Z,99.90
2018-03-01T22:03:45.972Z,99.90
2018-03-01T22:06:16.761Z,99.90
2018-03-01T22:08:46.404Z,99.90
2018-03-01T22:11:16.256Z,99.90
2018-03-01T22:13:46.067Z,99.90
2018-03-01T22:16:16.462Z,99.90
2018-03-01T22:18:46.091Z,99.90
2018-03-01T22:21:15.949Z,99.90
2018-03-01T22:23:45.797Z,99.90
2018-03-01T22:26:15.623Z,99.90
2018-03-01T22:28:45.952Z,99.90
2018-03-01T22:31:15.752Z,99.90
2018-03-01T22:33:45.402Z,99.90
2018-03-01T22:36:15.441Z,99.90
2018-03-01T22:38:45.293Z,99.90
2018-03-01T22:41:15.131Z,99.90
2018-03-01T22:43:45.693Z,99.90
2018-03-01T22:46:16.077Z,99.90
2018-03-01T22:48:46.643Z,99.90
2018-03-01T22:51:16.146Z,99.90
2018-03-01T22:53:46.233Z,99.90
2018-03-01T22:56:16.820Z,99.90
2018-03-01T22:58:46.381Z,99.90
2018-03-01T23:01:16.626Z,99.90
2018-03-01T23:03:46.207Z,99.90
2018-03-01T23:06:16.451Z,99.90
2018-03-01T23:08:46.034Z,99.90
2018-03-01T23:11:15.989Z,99.90
2018-03-01T23:13:45.834Z,99.90
2018-03-01T23:16:15.649Z,99.90
2018-03-01T23:18:45.482Z,99.90
2018-03-01T23:21:15.333Z,99.90
2018-03-01T23:23:45.121Z,99.90
2018-03-01T23:26:14.934Z,99.90
2018-03-01T23:28:45.538Z,99.90
2018-03-01T23:31:15.346Z,99.90
2018-03-01T23:33:44.838Z,99.90
2018-03-01T23:36:15.120Z,99.90
2018-03-01T23:38:45.060Z,99.90
2018-03-01T23:41:14.568Z,99.90
2018-03-01T23:43:44.401Z,99.90
2018-03-01T23:46:13.295Z,99.90
2018-03-01T23:48:43.186Z,99.90
2018-03-01T23:51:12.717Z,99.90
2018-03-01T23:53:43.230Z,99.90
2018-03-01T23:56:13.092Z,99.90
2018-03-01T23:58:42.918Z,99.90
